Main page
METAR-TAF:

METAR-TAF

Airports :

Ula, Norway

Oil platform

latitude: 59-06-39N, longitude: 2-50-45E, elevation: 0 m

Current weather observation

The report was made 28 minutes ago, at 08:50 UTC
Wind 11 kt from the West
Temperature 7°C
Humidity 81%
Pressure 1015 hPa
Visibility 10 km or more

METAR: ENLA 290850Z AUTO 28011KT 9999NDV OVC019/// 07/04 Q1015 W///S/

Time: 11:18 (09:18 UTC)


TAF: missing

Weather observations and forecasts of more than 4000 airports (METAR and TAF reports).

The available stations are represented by yellow and red dots on the map.

Hover mouse over dot to see the name of the station.

Then click to see weather observations and forecasts.

To change the map : click on the green buttons with a black cross to zoom in, on the green button with a dash to zoom out, or on the green arrows for adjacent maps.


METAR-TAF: